createdAt,value
2022-08-17T00:00:34.371Z,20.60
2022-08-17T00:03:09.527Z,20.60
2022-08-17T00:05:43.646Z,20.60
2022-08-17T00:08:11.959Z,20.60
2022-08-17T00:10:40.448Z,20.60
2022-08-17T00:13:10.804Z,20.60
2022-08-17T00:15:40.115Z,20.50
2022-08-17T00:19:06.540Z,20.50
2022-08-17T00:20:58.045Z,20.50
2022-08-17T00:23:26.559Z,20.50
2022-08-17T00:25:55.090Z,20.40
2022-08-17T00:28:23.145Z,20.50
2022-08-17T00:30:53.890Z,20.50
2022-08-17T00:33:25.850Z,20.50
2022-08-17T00:35:54.060Z,20.40
2022-08-17T00:38:22.664Z,20.40
2022-08-17T00:40:55.761Z,20.40
2022-08-17T00:43:31.780Z,20.40
2022-08-17T00:46:03.056Z,20.40
2022-08-17T00:48:32.386Z,20.40
2022-08-17T00:51:08.119Z,20.30
2022-08-17T00:53:39.602Z,20.30
2022-08-17T00:56:12.427Z,20.30
2022-08-17T00:58:40.879Z,20.30
2022-08-17T01:01:12.356Z,20.30
2022-08-17T01:03:49.471Z,20.30
2022-08-17T01:06:17.439Z,20.30
2022-08-17T01:08:45.802Z,20.30
2022-08-17T01:11:13.612Z,20.30
2022-08-17T01:13:44.034Z,20.30
2022-08-17T01:16:17.917Z,20.30
2022-08-17T01:18:48.934Z,20.40
2022-08-17T01:21:23.198Z,20.30
2022-08-17T01:23:52.801Z,20.40
2022-08-17T01:26:21.473Z,20.40
2022-08-17T01:28:54.136Z,20.40
2022-08-17T01:31:25.557Z,20.30
2022-08-17T01:33:53.808Z,20.30
2022-08-17T01:36:21.999Z,20.30
2022-08-17T01:38:49.789Z,20.40
2022-08-17T01:41:22.574Z,20.30
2022-08-17T01:43:54.697Z,20.40
2022-08-17T01:46:26.921Z,20.40
2022-08-17T01:48:57.418Z,20.30
2022-08-17T01:51:26.899Z,20.40
2022-08-17T01:53:58.434Z,20.40
2022-08-17T01:56:29.686Z,20.40
2022-08-17T01:58:58.047Z,20.40
2022-08-17T02:01:30.229Z,20.40
2022-08-17T02:04:00.934Z,20.40
2022-08-17T02:06:30.622Z,20.40
2022-08-17T02:09:01.794Z,20.40
2022-08-17T02:11:34.789Z,20.30
2022-08-17T02:14:04.028Z,20.40
2022-08-17T02:16:37.357Z,20.40
2022-08-17T02:19:06.965Z,20.40
2022-08-17T02:21:35.154Z,20.40
2022-08-17T02:24:03.528Z,20.40
2022-08-17T02:26:33.274Z,20.40
2022-08-17T02:29:01.041Z,20.30
2022-08-17T02:31:31.013Z,20.30
2022-08-17T02:34:03.659Z,20.30
2022-08-17T02:36:33.794Z,20.40
2022-08-17T02:39:02.489Z,20.40
2022-08-17T02:41:31.667Z,20.50
2022-08-17T02:43:59.703Z,20.30
2022-08-17T02:46:28.206Z,20.20
2022-08-17T02:48:55.968Z,20.10
2022-08-17T02:51:23.738Z,20.00
2022-08-17T02:53:51.576Z,19.90
2022-08-17T02:56:19.466Z,19.90
2022-08-17T02:58:48.619Z,19.90
2022-08-17T03:01:16.551Z,19.80
2022-08-17T03:03:44.600Z,19.80
2022-08-17T03:06:12.536Z,19.80
2022-08-17T03:08:40.544Z,19.80
2022-08-17T03:11:08.303Z,19.80
2022-08-17T03:13:36.282Z,19.80
2022-08-17T03:16:05.942Z,19.70
2022-08-17T03:18:33.914Z,19.70
2022-08-17T03:21:04.490Z,19.70
2022-08-17T03:23:32.698Z,19.70
2022-08-17T03:26:01.722Z,19.70
2022-08-17T03:28:30.140Z,19.70
2022-08-17T03:30:57.927Z,19.70
2022-08-17T03:33:27.415Z,19.70
2022-08-17T03:35:55.251Z,19.70
2022-08-17T03:38:23.415Z,19.70
2022-08-17T03:40:57.676Z,19.60
2022-08-17T03:43:29.097Z,19.60
2022-08-17T03:46:27.606Z,19.60
2022-08-17T03:49:18.052Z,19.50
2022-08-17T03:52:03.618Z,19.50
2022-08-17T03:54:49.186Z,19.50
2022-08-17T03:57:17.311Z,19.50
2022-08-17T03:59:45.365Z,19.50
2022-08-17T04:02:18.089Z,19.50
2022-08-17T04:04:50.576Z,19.50
2022-08-17T04:07:18.586Z,19.50
2022-08-17T04:09:46.378Z,19.50
2022-08-17T04:12:16.313Z,19.50
2022-08-17T04:14:52.255Z,19.40
2022-08-17T04:17:23.531Z,19.50
2022-08-17T04:19:52.893Z,19.50
2022-08-17T04:22:30.132Z,19.50
2022-08-17T04:25:02.721Z,19.50
2022-08-17T04:27:30.574Z,19.60
2022-08-17T04:29:58.435Z,19.60
2022-08-17T04:33:00.802Z,19.60
2022-08-17T04:35:19.160Z,19.70
2022-08-17T04:37:47.307Z,19.70
2022-08-17T04:40:32.845Z,19.80
2022-08-17T04:43:07.083Z,19.80
2022-08-17T04:45:35.023Z,19.90
2022-08-17T04:48:04.214Z,19.90
2022-08-17T04:50:34.666Z,19.90
2022-08-17T04:53:02.619Z,20.00
2022-08-17T04:55:31.290Z,20.00
2022-08-17T04:57:59.306Z,20.10
2022-08-17T05:00:27.354Z,20.10
2022-08-17T05:02:56.704Z,20.20
2022-08-17T05:05:36.236Z,20.20
2022-08-17T05:08:06.565Z,20.30
2022-08-17T05:10:38.345Z,20.30
2022-08-17T05:13:15.506Z,20.40
2022-08-17T05:15:45.325Z,20.40
2022-08-17T05:18:17.359Z,20.40
2022-08-17T05:20:46.678Z,20.50
2022-08-17T05:23:16.150Z,20.50
2022-08-17T05:25:47.805Z,20.50
2022-08-17T05:28:17.413Z,20.60
2022-08-17T05:30:49.269Z,20.60
2022-08-17T05:33:19.270Z,20.70
2022-08-17T05:35:51.066Z,20.70
2022-08-17T05:38:21.407Z,20.80
2022-08-17T05:40:49.962Z,20.80
2022-08-17T05:43:22.064Z,20.80
2022-08-17T05:45:58.203Z,20.80
2022-08-17T05:48:35.612Z,20.80
2022-08-17T05:51:40.096Z,20.90
2022-08-17T05:54:23.955Z,20.90
2022-08-17T05:57:09.928Z,21.00
2022-08-17T05:59:48.162Z,21.00
2022-08-17T06:02:21.665Z,21.00
2022-08-17T06:05:05.161Z,21.10
2022-08-17T06:07:45.197Z,21.10
2022-08-17T06:10:16.438Z,21.10
2022-08-17T06:12:56.818Z,21.10
2022-08-17T06:15:32.309Z,21.20
2022-08-17T06:18:03.665Z,21.20
2022-08-17T06:20:39.375Z,21.20
2022-08-17T06:23:14.233Z,21.30
2022-08-17T06:25:47.190Z,21.30
2022-08-17T06:28:24.201Z,21.30
2022-08-17T06:30:59.809Z,21.40
2022-08-17T06:33:34.279Z,21.40
2022-08-17T06:36:09.836Z,21.50
2022-08-17T06:38:47.760Z,21.50
2022-08-17T06:41:21.384Z,21.50
2022-08-17T06:44:03.922Z,21.60
2022-08-17T06:46:37.563Z,21.60
2022-08-17T06:49:16.984Z,21.70
2022-08-17T06:51:50.547Z,21.70
2022-08-17T06:54:27.086Z,21.80
2022-08-17T06:57:01.598Z,21.80
2022-08-17T06:59:54.632Z,21.80
2022-08-17T07:02:53.267Z,21.80
2022-08-17T07:05:21.809Z,21.80
2022-08-17T07:08:04.640Z,21.90
2022-08-17T07:10:39.070Z,21.90
2022-08-17T07:13:38.853Z,22.00
2022-08-17T07:16:14.672Z,22.00
2022-08-17T07:18:43.805Z,22.10
2022-08-17T07:21:26.514Z,22.20
2022-08-17T07:24:07.754Z,22.20
2022-08-17T07:26:38.847Z,22.30
2022-08-17T07:29:06.852Z,22.40
2022-08-17T07:31:34.613Z,22.40
2022-08-17T07:34:07.883Z,22.50
2022-08-17T07:36:35.732Z,22.50
2022-08-17T07:39:05.164Z,22.60
2022-08-17T07:41:57.120Z,22.70
2022-08-17T07:44:27.328Z,22.90
2022-08-17T07:47:13.209Z,23.00
2022-08-17T07:52:48.247Z,23.30
2022-08-17T07:55:29.319Z,23.50
2022-08-17T07:58:00.435Z,23.80
2022-08-17T08:00:32.170Z,23.80
2022-08-17T08:03:18.220Z,23.90
2022-08-17T08:05:52.213Z,24.00
2022-08-17T08:08:26.872Z,24.10
2022-08-17T08:11:08.417Z,24.30
2022-08-17T08:13:42.695Z,24.60
2022-08-17T08:16:22.645Z,24.70
2022-08-17T08:18:56.881Z,24.80
2022-08-17T08:21:34.222Z,24.90
2022-08-17T08:24:42.683Z,25.00
2022-08-17T08:27:19.611Z,25.10
2022-08-17T08:29:53.958Z,25.10
2022-08-17T08:32:34.498Z,25.10
2022-08-17T08:35:06.526Z,25.20
2022-08-17T08:37:44.281Z,25.30
2022-08-17T08:42:57.508Z,25.40
2022-08-17T08:45:33.845Z,25.60
2022-08-17T08:48:46.068Z,25.70
2022-08-17T08:51:09.511Z,25.70
2022-08-17T08:53:46.365Z,25.80
2022-08-17T08:58:51.581Z,26.00
2022-08-17T09:01:29.437Z,26.00
2022-08-17T09:04:24.791Z,26.10
2022-08-17T09:07:05.900Z,26.10
2022-08-17T09:09:45.253Z,26.10
2022-08-17T09:12:18.509Z,26.30
2022-08-17T09:15:03.935Z,26.40
2022-08-17T09:17:40.733Z,26.50
2022-08-17T09:20:27.189Z,26.40
2022-08-17T09:23:03.923Z,26.50
2022-08-17T09:25:34.868Z,26.60
2022-08-17T09:28:06.177Z,26.80
2022-08-17T09:30:39.971Z,26.90
2022-08-17T09:33:12.819Z,27.10
2022-08-17T09:35:45.395Z,27.00
2022-08-17T09:38:22.190Z,27.00
2022-08-17T09:40:56.337Z,27.00
2022-08-17T09:43:32.403Z,27.10
2022-08-17T09:46:04.805Z,27.20
2022-08-17T09:48:39.986Z,27.20
2022-08-17T09:51:13.207Z,27.20
2022-08-17T09:53:41.472Z,27.10
2022-08-17T09:56:29.341Z,27.10
2022-08-17T09:59:17.199Z,27.20
2022-08-17T10:01:52.574Z,27.20
2022-08-17T10:04:37.843Z,27.20
2022-08-17T10:07:10.989Z,27.20
2022-08-17T10:09:49.491Z,27.20
2022-08-17T10:12:31.744Z,27.30
2022-08-17T10:15:12.625Z,27.40
2022-08-17T10:17:55.467Z,27.50
2022-08-17T10:20:31.720Z,27.70
2022-08-17T10:23:22.605Z,27.70
2022-08-17T10:26:09.365Z,27.80
2022-08-17T10:28:43.461Z,27.80
2022-08-17T10:31:34.198Z,27.90
2022-08-17T10:34:40.383Z,27.90
2022-08-17T10:37:30.469Z,28.00
2022-08-17T10:40:23.524Z,28.10
2022-08-17T10:43:00.130Z,28.10
2022-08-17T10:45:34.872Z,28.20
2022-08-17T10:48:19.900Z,28.30
2022-08-17T10:50:58.469Z,28.50
2022-08-17T10:53:57.025Z,28.60
2022-08-17T10:56:41.217Z,28.70
2022-08-17T10:59:09.403Z,28.70
2022-08-17T11:02:05.177Z,28.70
2022-08-17T11:04:50.145Z,28.80
2022-08-17T11:07:28.863Z,28.90
2022-08-17T11:10:17.887Z,29.00
2022-08-17T11:12:52.418Z,29.20
2022-08-17T11:15:32.297Z,29.20
2022-08-17T11:18:18.927Z,29.20
2022-08-17T11:21:08.170Z,29.40
2022-08-17T11:23:54.671Z,29.40
2022-08-17T11:26:29.592Z,29.50
2022-08-17T11:29:01.442Z,29.50
2022-08-17T11:31:37.833Z,29.50
2022-08-17T11:34:13.519Z,29.50
2022-08-17T11:37:28.311Z,29.60
2022-08-17T11:40:07.741Z,29.70
2022-08-17T11:42:49.980Z,29.80
2022-08-17T11:45:37.666Z,29.90
2022-08-17T11:48:38.139Z,29.80
2022-08-17T11:51:32.237Z,29.70
2022-08-17T11:54:31.168Z,29.70
2022-08-17T11:56:53.612Z,29.60
2022-08-17T11:59:58.964Z,29.50
2022-08-17T12:02:48.899Z,29.50
2022-08-17T12:05:36.010Z,29.50
2022-08-17T12:08:17.615Z,29.60
2022-08-17T12:11:01.035Z,29.60
2022-08-17T12:13:38.493Z,29.60
2022-08-17T12:16:10.209Z,29.50
2022-08-17T12:18:39.787Z,29.30
2022-08-17T12:21:20.333Z,29.20
2022-08-17T12:23:57.082Z,29.20
2022-08-17T12:26:30.239Z,29.20
2022-08-17T12:29:01.866Z,29.20
2022-08-17T12:31:36.310Z,29.00
2022-08-17T12:34:05.528Z,28.90
2022-08-17T12:36:33.813Z,28.90
2022-08-17T12:39:12.821Z,28.80
2022-08-17T12:41:46.712Z,28.70
2022-08-17T12:44:16.717Z,28.50
2022-08-17T12:46:53.294Z,28.40
2022-08-17T12:49:26.323Z,28.30
2022-08-17T12:52:02.747Z,28.10
2022-08-17T12:54:35.372Z,28.00
2022-08-17T12:57:09.915Z,27.90
2022-08-17T12:59:43.135Z,27.80
2022-08-17T13:02:28.272Z,27.70
2022-08-17T13:04:58.028Z,27.70
2022-08-17T13:07:35.243Z,27.60
2022-08-17T13:10:03.353Z,27.40
2022-08-17T13:12:33.886Z,27.30
2022-08-17T13:15:02.314Z,27.20
2022-08-17T13:17:35.188Z,27.10
2022-08-17T13:20:06.596Z,27.10
2022-08-17T13:22:34.391Z,27.10
2022-08-17T13:25:07.402Z,27.00
2022-08-17T13:27:35.310Z,26.90
2022-08-17T13:30:08.136Z,26.80
2022-08-17T13:32:43.009Z,26.80
2022-08-17T13:35:39.724Z,26.80
2022-08-17T13:38:11.136Z,26.70
2022-08-17T13:40:58.581Z,26.80
2022-08-17T13:43:44.503Z,26.80
2022-08-17T13:46:21.357Z,26.70
2022-08-17T13:49:01.076Z,26.60
2022-08-17T13:51:33.674Z,26.70
2022-08-17T13:54:09.262Z,26.70
2022-08-17T13:56:53.991Z,26.70
2022-08-17T13:59:52.956Z,26.80
2022-08-17T14:02:21.699Z,26.90
2022-08-17T14:04:50.777Z,26.90
2022-08-17T14:07:33.986Z,26.90
2022-08-17T14:10:05.951Z,26.90
2022-08-17T14:12:35.819Z,26.90
2022-08-17T14:15:03.824Z,26.90
2022-08-17T14:17:36.511Z,26.90
2022-08-17T14:20:10.128Z,26.90
2022-08-17T14:22:39.891Z,26.80
2022-08-17T14:25:10.471Z,26.80
2022-08-17T14:27:51.980Z,26.80
2022-08-17T14:30:23.197Z,26.70
2022-08-17T14:32:51.945Z,26.60
2022-08-17T14:35:23.707Z,26.50
2022-08-17T14:37:53.126Z,26.40
2022-08-17T14:40:22.599Z,26.30
2022-08-17T14:42:50.805Z,26.30
2022-08-17T14:45:30.131Z,26.20
2022-08-17T14:48:02.628Z,26.10
2022-08-17T14:50:31.997Z,26.20
2022-08-17T14:53:04.355Z,26.10
2022-08-17T14:55:32.402Z,26.10
2022-08-17T14:58:00.517Z,26.10
2022-08-17T15:00:28.549Z,26.00
2022-08-17T15:02:59.133Z,26.00
2022-08-17T15:05:32.411Z,26.00
2022-08-17T15:08:02.626Z,26.00
2022-08-17T15:10:31.199Z,26.00
2022-08-17T15:13:00.112Z,26.10
2022-08-17T15:15:28.399Z,26.10
2022-08-17T15:17:56.676Z,26.10
2022-08-17T15:20:27.819Z,26.20
2022-08-17T15:22:57.404Z,26.10
2022-08-17T15:25:28.679Z,26.20
2022-08-17T15:27:56.593Z,26.30
2022-08-17T15:30:25.646Z,26.30
2022-08-17T15:32:54.957Z,26.30
2022-08-17T15:35:28.158Z,26.40
2022-08-17T15:37:57.759Z,26.40
2022-08-17T15:40:26.952Z,26.30
2022-08-17T15:42:55.282Z,26.30
2022-08-17T15:45:28.221Z,26.30
2022-08-17T15:47:55.996Z,26.20
2022-08-17T15:50:23.775Z,26.20
2022-08-17T15:52:57.946Z,26.10
2022-08-17T15:55:29.035Z,26.10
2022-08-17T15:57:57.044Z,26.10
2022-08-17T16:00:25.948Z,26.10
2022-08-17T16:03:15.225Z,26.10
2022-08-17T16:05:42.285Z,26.10
2022-08-17T16:08:11.065Z,26.10
2022-08-17T16:10:40.380Z,26.10
2022-08-17T16:13:17.461Z,26.10
2022-08-17T16:15:49.726Z,26.10
2022-08-17T16:18:26.416Z,26.00
2022-08-17T16:20:54.922Z,26.00
2022-08-17T16:23:23.297Z,25.90
2022-08-17T16:25:54.279Z,25.90
2022-08-17T16:28:23.197Z,25.90
2022-08-17T16:31:05.754Z,25.90
2022-08-17T16:33:37.531Z,25.90
2022-08-17T16:36:06.002Z,25.90
2022-08-17T16:38:34.257Z,25.90
2022-08-17T16:41:03.782Z,25.90
2022-08-17T16:43:31.734Z,25.90
2022-08-17T16:46:00.703Z,25.90
2022-08-17T16:48:29.580Z,25.90
2022-08-17T16:51:02.077Z,25.80
2022-08-17T16:53:31.408Z,25.80
2022-08-17T16:55:59.199Z,25.80
2022-08-17T16:58:28.386Z,25.70
2022-08-17T17:00:59.603Z,25.70
2022-08-17T17:03:29.991Z,25.70
2022-08-17T17:06:07.938Z,25.70
2022-08-17T17:08:43.676Z,25.70
2022-08-17T17:11:15.267Z,25.70
2022-08-17T17:13:50.587Z,25.70
2022-08-17T17:16:21.752Z,25.70
2022-08-17T17:19:01.722Z,25.70
2022-08-17T17:21:38.111Z,25.70
2022-08-17T17:24:12.616Z,25.70
2022-08-17T17:27:07.218Z,25.70
2022-08-17T17:29:47.809Z,25.70
2022-08-17T17:32:22.469Z,25.60
2022-08-17T17:34:55.515Z,25.60
2022-08-17T17:37:28.257Z,25.60
2022-08-17T17:40:00.493Z,25.50
2022-08-17T17:42:32.239Z,25.40
2022-08-17T17:45:07.283Z,25.40
2022-08-17T17:47:36.026Z,25.30
2022-08-17T17:50:05.936Z,25.30
2022-08-17T17:52:40.980Z,25.20
2022-08-17T17:55:41.498Z,25.10
2022-08-17T17:58:21.985Z,25.10
2022-08-17T18:01:02.220Z,25.10
2022-08-17T18:03:52.927Z,25.10
2022-08-17T18:06:31.477Z,25.10
2022-08-17T18:09:10.248Z,25.10
2022-08-17T18:11:58.995Z,25.00
2022-08-17T18:14:42.248Z,25.00
2022-08-17T18:17:11.914Z,24.90
2022-08-17T18:19:39.934Z,24.80
2022-08-17T18:22:14.467Z,24.70
2022-08-17T18:24:44.240Z,24.70
2022-08-17T18:27:23.199Z,24.60
2022-08-17T18:29:53.980Z,24.60
2022-08-17T18:32:36.816Z,24.30
2022-08-17T18:35:30.078Z,24.40
2022-08-17T18:38:20.418Z,24.30
2022-08-17T18:40:59.575Z,24.30
2022-08-17T18:43:44.265Z,24.20
2022-08-17T18:46:28.843Z,24.20
2022-08-17T18:49:01.486Z,24.10
2022-08-17T18:51:42.503Z,24.10
2022-08-17T18:54:21.375Z,24.10
2022-08-17T18:56:55.081Z,24.00
2022-08-17T18:59:27.899Z,24.00
2022-08-17T19:02:16.077Z,23.90
2022-08-17T19:05:01.446Z,23.90
2022-08-17T19:07:31.910Z,23.80
2022-08-17T19:10:14.519Z,23.80
2022-08-17T19:12:46.483Z,23.80
2022-08-17T19:15:18.016Z,23.70
2022-08-17T19:17:51.881Z,23.60
2022-08-17T19:20:27.486Z,23.70
2022-08-17T19:23:16.613Z,23.60
2022-08-17T19:25:49.474Z,23.60
2022-08-17T19:28:24.781Z,23.50
2022-08-17T19:30:57.766Z,23.50
2022-08-17T19:33:26.739Z,23.50
2022-08-17T19:36:04.016Z,23.40
2022-08-17T19:38:43.074Z,23.40
2022-08-17T19:41:16.953Z,23.30
2022-08-17T19:43:58.587Z,23.30
2022-08-17T19:46:48.455Z,23.30
2022-08-17T19:49:33.198Z,23.30
2022-08-17T19:52:38.357Z,23.30
2022-08-17T19:55:20.294Z,23.20
2022-08-17T19:58:00.493Z,23.30
2022-08-17T20:00:31.141Z,23.40
2022-08-17T20:03:06.071Z,23.00
2022-08-17T20:06:01.047Z,23.00
2022-08-17T20:08:29.722Z,23.20
2022-08-17T20:11:02.207Z,23.20
2022-08-17T20:13:34.345Z,23.00
2022-08-17T20:16:03.037Z,23.10
2022-08-17T20:18:37.623Z,23.10
2022-08-17T20:21:20.572Z,23.00
2022-08-17T20:23:54.569Z,23.20
2022-08-17T20:26:28.039Z,23.20
2022-08-17T20:29:10.050Z,23.10
2022-08-17T20:31:48.799Z,23.00
2022-08-17T20:34:36.752Z,23.10
2022-08-17T20:37:08.788Z,23.10
2022-08-17T20:39:42.070Z,23.10
2022-08-17T20:42:28.344Z,23.10
2022-08-17T20:44:59.119Z,23.40
2022-08-17T20:47:31.998Z,23.20
2022-08-17T20:50:04.665Z,23.20
2022-08-17T20:52:52.501Z,23.30
2022-08-17T20:55:55.678Z,23.30
2022-08-17T20:58:48.249Z,23.40
2022-08-17T21:01:24.164Z,23.30
2022-08-17T21:03:54.185Z,23.30
2022-08-17T21:06:24.476Z,23.30
2022-08-17T21:08:58.530Z,23.20
2022-08-17T21:12:03.205Z,22.80
2022-08-17T21:14:58.546Z,22.50
2022-08-17T21:17:44.334Z,22.10
2022-08-17T21:20:32.298Z,21.90
2022-08-17T21:23:20.528Z,21.70
2022-08-17T21:26:13.094Z,21.50
2022-08-17T21:29:00.670Z,20.80
2022-08-17T21:31:36.649Z,20.70
2022-08-17T21:34:25.525Z,20.40
2022-08-17T21:36:53.560Z,20.40
2022-08-17T21:39:33.438Z,20.30
2022-08-17T21:42:01.601Z,20.30
2022-08-17T21:44:35.377Z,20.40
2022-08-17T21:47:19.093Z,20.40
2022-08-17T21:49:46.955Z,20.50
2022-08-17T21:52:17.484Z,20.50
2022-08-17T21:54:51.883Z,20.50
2022-08-17T21:57:22.261Z,20.70
2022-08-17T21:59:55.819Z,20.70
2022-08-17T22:02:25.973Z,20.80
2022-08-17T22:04:58.597Z,20.80
2022-08-17T22:07:38.458Z,20.90
2022-08-17T22:10:09.492Z,20.90
2022-08-17T22:12:37.240Z,20.90
2022-08-17T22:15:09.631Z,21.00
2022-08-17T22:17:41.152Z,21.00
2022-08-17T22:20:14.412Z,21.00
2022-08-17T22:23:29.522Z,21.00
2022-08-17T22:26:01.606Z,21.00
2022-08-17T22:28:45.602Z,21.00
2022-08-17T22:31:15.451Z,21.00
2022-08-17T22:33:46.738Z,20.90
2022-08-17T22:36:29.025Z,21.00
2022-08-17T22:39:00.320Z,21.10
2022-08-17T22:41:41.698Z,21.10
2022-08-17T22:44:17.165Z,20.60
2022-08-17T22:47:00.733Z,20.00
2022-08-17T22:49:32.532Z,19.10
2022-08-17T22:52:02.985Z,19.00
2022-08-17T22:54:50.177Z,18.90
2022-08-17T22:57:36.617Z,19.00
2022-08-17T23:00:26.507Z,19.00
2022-08-17T23:03:17.558Z,19.10
2022-08-17T23:05:49.431Z,19.20
2022-08-17T23:08:21.189Z,19.20
2022-08-17T23:10:50.588Z,19.10
2022-08-17T23:13:18.400Z,19.20
2022-08-17T23:15:48.076Z,19.20
2022-08-17T23:18:17.469Z,19.20
2022-08-17T23:20:45.984Z,19.30
2022-08-17T23:23:15.652Z,19.20
2022-08-17T23:25:46.254Z,19.40
2022-08-17T23:28:15.364Z,19.20
2022-08-17T23:30:45.046Z,19.40
2022-08-17T23:33:19.341Z,19.50
2022-08-17T23:35:47.267Z,19.40
2022-08-17T23:38:15.510Z,19.30
2022-08-17T23:40:43.327Z,19.10
2022-08-17T23:43:24.175Z,19.20
2022-08-17T23:45:57.038Z,19.20
2022-08-17T23:48:34.949Z,19.10
2022-08-17T23:51:06.000Z,19.20
2022-08-17T23:53:36.615Z,19.30
2022-08-17T23:56:09.802Z,19.40
2022-08-17T23:58:39.310Z,19.40
